Time;durP1;ratioP1;P1;durP2;ratioP2;P2;SDS_P1;SDS_P2;PMS_P1;PMS_P2;Temp;Humidity;BMP_temperature;BMP_pressure;BME280_temperature;BME280_humidity;BME280_pressure;Samples;Min_cycle;Max_cycle;Signal;HPM_P1;HPM_P2
2023/07/25 00:01:01;;;;;;;5.32;3.15;;;;;;;;;;6156822;23;20018;-77
2023/07/25 00:03:28;;;;;;;6.22;3.10;;;;;;;;;;6156334;23;20390;-77
2023/07/25 00:05:54;;;;;;;5.38;3.47;;;;;;;;;;6155713;23;20021;-77
2023/07/25 00:08:21;;;;;;;7.18;4.00;;;;;;;;;;6156377;23;20450;-77
2023/07/25 00:10:48;;;;;;;6.45;4.00;;;;;;;;;;6155843;23;20032;-77
2023/07/25 00:13:15;;;;;;;7.35;4.05;;;;;;;;;;6156055;23;20017;-77
2023/07/25 00:15:42;;;;;;;6.22;4.10;;;;;;;;;;6156572;23;20041;-77
2023/07/25 00:18:09;;;;;;;5.95;3.80;;;;;;;;;;6156925;23;20049;-77
2023/07/25 00:20:35;;;;;;;7.50;3.67;;;;;;;;;;6155482;23;20335;-77
2023/07/25 00:23:02;;;;;;;6.75;3.80;;;;;;;;;;6155497;23;20017;-77
2023/07/25 00:25:28;;;;;;;5.60;3.47;;;;;;;;;;6155943;23;20022;-77
2023/07/25 00:27:55;;;;;;;5.93;2.78;;;;;;;;;;6148431;23;20470;-77
2023/07/25 00:30:23;;;;;;;5.72;3.10;;;;;;;;;;6154103;23;20466;-77
2023/07/25 00:32:49;;;;;;;5.10;3.03;;;;;;;;;;6154237;23;20390;-77
2023/07/25 00:35:16;;;;;;;5.22;2.78;;;;;;;;;;6154879;23;20021;-77
2023/07/25 00:37:42;;;;;;;5.57;3.20;;;;;;;;;;6155466;23;20017;-78
2023/07/25 00:40:10;;;;;;;7.55;3.75;;;;;;;;;;6156430;23;20025;-78
2023/07/25 00:42:36;;;;;;;7.13;4.07;;;;;;;;;;6155841;23;20096;-77
2023/07/25 00:45:03;;;;;;;6.35;3.97;;;;;;;;;;6155633;23;20096;-77
2023/07/25 00:47:31;;;;;;;5.97;3.80;;;;;;;;;;6155313;23;20021;-77
2023/07/25 00:49:58;;;;;;;9.00;4.15;;;;;;;;;;6155045;23;20017;-77
2023/07/25 00:52:24;;;;;;;6.45;3.72;;;;;;;;;;6154335;23;20101;-78
2023/07/25 00:54:51;;;;;;;6.63;4.03;;;;;;;;;;6155042;23;20054;-77
2023/07/25 00:57:19;;;;;;;6.57;4.30;;;;;;;;;;6154642;23;20034;-77
2023/07/25 00:59:46;;;;;;;6.70;4.05;;;;;;;;;;6154398;23;20056;-78
2023/07/25 01:02:14;;;;;;;7.00;3.78;;;;;;;;;;6155035;23;20108;-77
2023/07/25 01:04:43;;;;;;;6.03;3.80;;;;;;;;;;6157277;23;20018;-78
2023/07/25 01:07:13;;;;;;;6.25;3.47;;;;;;;;;;6154966;23;20022;-78
2023/07/25 01:09:41;;;;;;;7.43;4.22;;;;;;;;;;6154808;23;20359;-78
2023/07/25 01:12:08;;;;;;;7.35;3.30;;;;;;;;;;6154934;23;20089;-78
2023/07/25 01:14:36;;;;;;;5.78;4.25;;;;;;;;;;6155036;23;20022;-78
2023/07/25 01:17:07;;;;;;;6.32;3.65;;;;;;;;;;6156226;23;20033;-78
2023/07/25 01:19:35;;;;;;;6.72;3.67;;;;;;;;;;6157239;23;20028;-78
2023/07/25 01:22:03;;;;;;;6.20;3.45;;;;;;;;;;6154745;23;20018;-78
2023/07/25 01:24:31;;;;;;;6.88;4.03;;;;;;;;;;6154415;23;20022;-77
2023/07/25 01:26:58;;;;;;;8.43;4.15;;;;;;;;;;6154337;23;20022;-78
2023/07/25 01:29:24;;;;;;;6.60;4.50;;;;;;;;;;6154097;23;20241;-76
2023/07/25 01:31:51;;;;;;;7.35;4.05;;;;;;;;;;6154597;23;20025;-77
2023/07/25 01:34:17;;;;;;;6.47;3.90;;;;;;;;;;6154243;23;20025;-79
2023/07/25 01:36:44;;;;;;;6.72;4.03;;;;;;;;;;6155099;23;20101;-77
2023/07/25 01:39:11;;;;;;;7.13;4.07;;;;;;;;;;6154553;23;20018;-77
2023/07/25 01:41:40;;;;;;;6.18;3.78;;;;;;;;;;6156113;23;20024;-78
2023/07/25 01:44:06;;;;;;;6.32;3.60;;;;;;;;;;6155875;23;20351;-78
2023/07/25 01:46:33;;;;;;;6.75;3.80;;;;;;;;;;6155993;23;20021;-78
2023/07/25 01:48:59;;;;;;;7.75;3.85;;;;;;;;;;6156098;23;20017;-78
2023/07/25 01:51:27;;;;;;;5.72;2.92;;;;;;;;;;6154804;23;20100;-78
2023/07/25 01:53:54;;;;;;;6.68;3.97;;;;;;;;;;6155770;23;20029;-78
2023/07/25 01:56:21;;;;;;;6.85;4.18;;;;;;;;;;6155030;23;20053;-78
2023/07/25 01:58:49;;;;;;;6.53;3.95;;;;;;;;;;6155183;23;20045;-78
2023/07/25 02:01:15;;;;;;;5.82;3.85;;;;;;;;;;6154760;23;20068;-77
2023/07/25 02:03:42;;;;;;;6.00;3.67;;;;;;;;;;6154952;23;20495;-78
2023/07/25 02:06:09;;;;;;;5.88;3.60;;;;;;;;;;6154875;23;20104;-78
2023/07/25 02:08:35;;;;;;;7.80;3.53;;;;;;;;;;6154313;23;20082;-78
2023/07/25 02:11:02;;;;;;;5.43;2.90;;;;;;;;;;6153752;23;20076;-78
2023/07/25 02:13:29;;;;;;;6.93;3.38;;;;;;;;;;6154556;23;20458;-78
2023/07/25 02:15:57;;;;;;;4.40;2.70;;;;;;;;;;6154810;23;20022;-77
2023/07/25 02:18:23;;;;;;;4.38;2.60;;;;;;;;;;6154957;23;20477;-78
2023/07/25 02:20:50;;;;;;;5.03;3.05;;;;;;;;;;6153875;23;20021;-78
2023/07/25 02:23:16;;;;;;;4.28;2.28;;;;;;;;;;6154160;23;20048;-78
2023/07/25 02:25:47;;;;;;;5.00;2.60;;;;;;;;;;6154929;23;20053;-78
2023/07/25 02:28:14;;;;;;;4.57;2.80;;;;;;;;;;6155363;23;20018;-78
2023/07/25 02:30:40;;;;;;;4.85;3.00;;;;;;;;;;6155540;23;20056;-78
2023/07/25 02:33:08;;;;;;;4.65;2.70;;;;;;;;;;6155916;23;20096;-78
2023/07/25 02:35:35;;;;;;;5.80;3.20;;;;;;;;;;6155159;23;20027;-78
2023/07/25 02:38:01;;;;;;;4.90;2.97;;;;;;;;;;6153756;23;20026;-78
2023/07/25 02:40:28;;;;;;;4.18;2.33;;;;;;;;;;6153833;23;20513;-79
2023/07/25 02:42:54;;;;;;;4.65;2.40;;;;;;;;;;6154321;23;20022;-78
2023/07/25 02:45:21;;;;;;;5.35;2.85;;;;;;;;;;6154568;23;20056;-78
2023/07/25 02:47:47;;;;;;;7.07;3.50;;;;;;;;;;6155224;23;20022;-78
2023/07/25 02:50:15;;;;;;;6.00;3.67;;;;;;;;;;6155353;23;20026;-78
2023/07/25 02:52:42;;;;;;;6.32;2.97;;;;;;;;;;6155513;23;20431;-78
2023/07/25 02:55:09;;;;;;;5.15;3.03;;;;;;;;;;6156152;23;20307;-78
2023/07/25 02:57:36;;;;;;;6.03;3.05;;;;;;;;;;6158545;23;20057;-78
2023/07/25 03:00:02;;;;;;;4.68;2.72;;;;;;;;;;6156031;23;20029;-79
2023/07/25 03:02:29;;;;;;;5.03;2.90;;;;;;;;;;6154709;23;20025;-78
2023/07/25 03:04:56;;;;;;;5.45;3.05;;;;;;;;;;6156496;23;20032;-78
2023/07/25 03:07:24;;;;;;;7.47;4.03;;;;;;;;;;6155958;23;20017;-77
2023/07/25 03:09:50;;;;;;;6.55;4.10;;;;;;;;;;6157641;23;20041;-79
2023/07/25 03:12:17;;;;;;;5.90;3.72;;;;;;;;;;6160883;23;20017;-79
2023/07/25 03:14:44;;;;;;;5.32;3.47;;;;;;;;;;6161113;23;20021;-78
2023/07/25 03:17:10;;;;;;;7.05;3.70;;;;;;;;;;6165363;23;20096;-78
2023/07/25 03:19:37;;;;;;;4.63;3.03;;;;;;;;;;6161802;23;20053;-78
2023/07/25 03:22:04;;;;;;;4.53;2.50;;;;;;;;;;6159044;23;20018;-78
2023/07/25 03:24:32;;;;;;;4.90;3.00;;;;;;;;;;6158327;23;20022;-78
2023/07/25 03:26:58;;;;;;;5.05;2.78;;;;;;;;;;6159229;23;20018;-78
2023/07/25 03:29:25;;;;;;;4.47;3.10;;;;;;;;;;6158560;23;20414;-78
2023/07/25 03:31:52;;;;;;;5.28;2.72;;;;;;;;;;6160940;23;20029;-79
2023/07/25 03:34:18;;;;;;;6.18;2.75;;;;;;;;;;6159050;23;20018;-79
2023/07/25 03:36:45;;;;;;;6.45;3.58;;;;;;;;;;6159634;23;20021;-79
2023/07/25 03:39:11;;;;;;;5.38;2.72;;;;;;;;;;6160484;23;20085;-78
2023/07/25 03:41:39;;;;;;;5.93;3.08;;;;;;;;;;6160587;23;20369;-79
2023/07/25 03:44:06;;;;;;;4.15;2.50;;;;;;;;;;6160935;23;20021;-79
2023/07/25 03:46:32;;;;;;;5.20;3.03;;;;;;;;;;6159153;23;20354;-78
2023/07/25 03:48:59;;;;;;;4.25;2.80;;;;;;;;;;6159466;23;20028;-78
2023/07/25 03:51:26;;;;;;;6.50;3.22;;;;;;;;;;6159439;23;20021;-78
2023/07/25 03:53:52;;;;;;;5.75;3.17;;;;;;;;;;6160053;23;20041;-78
2023/07/25 03:56:19;;;;;;;5.05;2.78;;;;;;;;;;6159554;23;20423;-79
2023/07/25 03:58:47;;;;;;;6.03;3.35;;;;;;;;;;6155706;23;20091;-78
2023/07/25 04:01:13;;;;;;;5.35;2.80;;;;;;;;;;6154911;23;20021;-78
2023/07/25 04:03:40;;;;;;;5.35;3.08;;;;;;;;;;6158658;23;20026;-79
2023/07/25 04:06:06;;;;;;;6.68;3.30;;;;;;;;;;6159094;23;20495;-78
2023/07/25 04:08:33;;;;;;;5.20;2.83;;;;;;;;;;6159462;23;20105;-78
2023/07/25 04:10:59;;;;;;;5.03;3.17;;;;;;;;;;6158497;23;20017;-78
2023/07/25 04:13:26;;;;;;;5.10;2.92;;;;;;;;;;6159697;23;20021;-78
2023/07/25 04:15:54;;;;;;;5.25;3.03;;;;;;;;;;6160138;23;20113;-78
2023/07/25 04:18:20;;;;;;;5.38;3.38;;;;;;;;;;6160451;23;20044;-78
2023/07/25 04:20:47;;;;;;;5.80;2.97;;;;;;;;;;6159717;23;20022;-78
2023/07/25 04:23:14;;;;;;;5.00;2.85;;;;;;;;;;6157914;23;20018;-77
2023/07/25 04:25:41;;;;;;;5.32;2.88;;;;;;;;;;6156448;23;20116;-78
2023/07/25 04:28:08;;;;;;;4.55;2.70;;;;;;;;;;6156860;23;20021;-78
2023/07/25 04:30:34;;;;;;;5.10;2.75;;;;;;;;;;6156355;23;20025;-78
2023/07/25 04:33:02;;;;;;;4.75;2.60;;;;;;;;;;6156176;23;20343;-78
2023/07/25 04:35:29;;;;;;;5.78;2.90;;;;;;;;;;6156850;23;20045;-77
2023/07/25 04:37:55;;;;;;;4.82;2.90;;;;;;;;;;6156488;23;20026;-77
2023/07/25 04:40:22;;;;;;;5.95;2.92;;;;;;;;;;6156488;23;20028;-78
2023/07/25 04:42:48;;;;;;;5.30;2.85;;;;;;;;;;6155750;23;20018;-79
2023/07/25 04:45:15;;;;;;;6.07;2.80;;;;;;;;;;6156360;23;20018;-78
2023/07/25 04:47:41;;;;;;;4.75;2.70;;;;;;;;;;6156296;23;20018;-78
2023/07/25 04:50:10;;;;;;;4.68;2.97;;;;;;;;;;6156495;23;20018;-78
2023/07/25 04:52:37;;;;;;;4.30;2.45;;;;;;;;;;6154866;23;20036;-77
2023/07/25 04:55:03;;;;;;;5.28;2.60;;;;;;;;;;6154752;23;20029;-78
2023/07/25 04:57:30;;;;;;;4.78;2.90;;;;;;;;;;6154986;23;20025;-76
2023/07/25 04:59:56;;;;;;;6.10;2.67;;;;;;;;;;6155269;23;20100;-78
2023/07/25 05:02:23;;;;;;;4.55;2.55;;;;;;;;;;6155424;23;20024;-78
2023/07/25 05:04:50;;;;;;;4.70;3.03;;;;;;;;;;6156065;23;20025;-79
2023/07/25 05:07:18;;;;;;;5.03;2.95;;;;;;;;;;6156067;23;20021;-78
2023/07/25 05:09:44;;;;;;;4.93;3.20;;;;;;;;;;6156019;23;20355;-79
2023/07/25 05:12:13;;;;;;;5.68;2.88;;;;;;;;;;6156036;23;20092;-78
2023/07/25 05:14:40;;;;;;;6.72;3.30;;;;;;;;;;6155739;23;20028;-78
2023/07/25 05:17:07;;;;;;;6.22;2.70;;;;;;;;;;6158054;23;20021;-79
2023/07/25 05:19:34;;;;;;;4.45;2.78;;;;;;;;;;6158829;23;20053;-79
2023/07/25 05:22:00;;;;;;;5.28;2.75;;;;;;;;;;6161032;23;20533;-79
2023/07/25 05:24:29;;;;;;;5.22;3.03;;;;;;;;;;6161019;23;20025;-79
2023/07/25 05:26:56;;;;;;;5.50;2.95;;;;;;;;;;6159228;23;20024;-80
2023/07/25 05:29:22;;;;;;;7.00;2.72;;;;;;;;;;6161323;23;20049;-79
2023/07/25 05:31:49;;;;;;;4.80;2.75;;;;;;;;;;6159951;23;20069;-80
2023/07/25 05:34:15;;;;;;;5.78;2.95;;;;;;;;;;6157641;23;20033;-79
2023/07/25 05:36:42;;;;;;;4.70;2.65;;;;;;;;;;6160172;23;20025;-79
2023/07/25 05:39:08;;;;;;;6.40;2.90;;;;;;;;;;6158916;23;20505;-78
2023/07/25 05:41:37;;;;;;;5.30;2.92;;;;;;;;;;6155320;23;20025;-78
2023/07/25 05:44:04;;;;;;;5.13;2.70;;;;;;;;;;6154970;23;20356;-78
2023/07/25 05:46:31;;;;;;;6.45;3.40;;;;;;;;;;6155413;23;20116;-77
2023/07/25 05:48:57;;;;;;;3.88;2.30;;;;;;;;;;6155677;23;20021;-78
2023/07/25 05:51:24;;;;;;;4.32;2.58;;;;;;;;;;6156919;23;20025;-77
2023/07/25 05:53:50;;;;;;;4.70;2.78;;;;;;;;;;6155907;23;20361;-78
2023/07/25 05:56:17;;;;;;;6.40;2.90;;;;;;;;;;6156123;23;20041;-78
2023/07/25 05:58:45;;;;;;;4.68;2.67;;;;;;;;;;6155896;23;20105;-78
2023/07/25 06:01:13;;;;;;;4.63;2.95;;;;;;;;;;6155253;23;20029;-77
2023/07/25 06:03:39;;;;;;;5.15;2.90;;;;;;;;;;6157250;23;20089;-78
2023/07/25 06:06:06;;;;;;;6.88;2.60;;;;;;;;;;6158763;23;20076;-78
2023/07/25 06:08:32;;;;;;;5.32;3.05;;;;;;;;;;6156713;23;20018;-78
2023/07/25 06:10:59;;;;;;;4.70;2.67;;;;;;;;;;6156636;23;20052;-79
2023/07/25 06:13:25;;;;;;;5.50;2.90;;;;;;;;;;6157882;23;20029;-78
2023/07/25 06:15:53;;;;;;;9.13;3.42;;;;;;;;;;6157970;23;20022;-79
2023/07/25 06:18:20;;;;;;;6.53;3.03;;;;;;;;;;6157651;23;20022;-78
2023/07/25 06:20:47;;;;;;;7.18;2.80;;;;;;;;;;6156885;23;20021;-78
2023/07/25 06:23:14;;;;;;;6.07;2.92;;;;;;;;;;6158414;23;20470;-78
2023/07/25 06:25:41;;;;;;;4.75;2.65;;;;;;;;;;6158719;23;20092;-78
2023/07/25 06:28:07;;;;;;;5.82;3.22;;;;;;;;;;6153237;23;20100;-58
2023/07/25 06:30:34;;;;;;;4.82;3.00;;;;;;;;;;6154046;23;20096;-58
2023/07/25 06:33:02;;;;;;;5.03;3.08;;;;;;;;;;6154407;23;20382;-59
2023/07/25 06:35:29;;;;;;;5.15;3.13;;;;;;;;;;6154222;23;20467;-59
2023/07/25 06:37:55;;;;;;;5.40;3.30;;;;;;;;;;6153914;23;20030;-59
2023/07/25 06:40:22;;;;;;;6.60;2.80;;;;;;;;;;6154283;23;20144;-57
2023/07/25 06:42:48;;;;;;;5.40;3.08;;;;;;;;;;6153749;23;20018;-59
2023/07/25 06:45:15;;;;;;;6.85;3.10;;;;;;;;;;6154707;23;20093;-59
2023/07/25 06:47:42;;;;;;;6.45;3.67;;;;;;;;;;6155873;23;20101;-59
2023/07/25 06:50:10;;;;;;;6.25;3.75;;;;;;;;;;6156035;23;20097;-58
2023/07/25 06:52:37;;;;;;;5.95;3.10;;;;;;;;;;6155910;23;20024;-59
2023/07/25 06:55:03;;;;;;;6.28;3.35;;;;;;;;;;6156214;23;20017;-60
2023/07/25 06:57:30;;;;;;;6.05;3.00;;;;;;;;;;6155723;23;20023;-60
2023/07/25 06:59:56;;;;;;;5.78;3.47;;;;;;;;;;6155475;23;20063;-58
2023/07/25 07:02:23;;;;;;;5.32;2.72;;;;;;;;;;6155274;23;20017;-57
2023/07/25 07:04:50;;;;;;;5.93;2.92;;;;;;;;;;6155631;23;20017;-59
2023/07/25 07:07:18;;;;;;;6.05;2.80;;;;;;;;;;6156030;23;20101;-59
2023/07/25 07:09:45;;;;;;;5.28;3.40;;;;;;;;;;6155440;23;20060;-59
2023/07/25 07:12:11;;;;;;;5.82;2.80;;;;;;;;;;6155544;23;20092;-59
2023/07/25 07:14:38;;;;;;;5.10;2.60;;;;;;;;;;6155937;23;20030;-58
2023/07/25 07:17:04;;;;;;;6.25;2.85;;;;;;;;;;6156378;23;20025;-59
2023/07/25 07:19:31;;;;;;;5.43;2.72;;;;;;;;;;6155880;23;20022;-60
2023/07/25 07:21:58;;;;;;;4.97;2.90;;;;;;;;;;6155879;23;20472;-59
2023/07/25 07:24:26;;;;;;;5.75;2.80;;;;;;;;;;6155750;23;20460;-58
2023/07/25 07:26:52;;;;;;;7.40;3.33;;;;;;;;;;6155276;23;20021;-65
2023/07/25 07:29:19;;;;;;;6.88;3.10;;;;;;;;;;6155382;23;20077;-58
2023/07/25 07:31:46;;;;;;;4.90;2.80;;;;;;;;;;6154543;23;20028;-60
2023/07/25 07:34:14;;;;;;;4.85;2.60;;;;;;;;;;6152763;23;20096;-59
2023/07/25 07:36:41;;;;;;;6.65;2.78;;;;;;;;;;6153048;23;20017;-59
2023/07/25 07:39:08;;;;;;;5.20;2.90;;;;;;;;;;6152505;23;20104;-57
2023/07/25 07:41:36;;;;;;;4.82;2.47;;;;;;;;;;6152685;23;20018;-59
2023/07/25 07:44:03;;;;;;;6.45;2.78;;;;;;;;;;6152650;23;20021;-65
2023/07/25 07:46:30;;;;;;;6.00;3.00;;;;;;;;;;6152090;23;20074;-60
2023/07/25 07:48:57;;;;;;;4.45;2.58;;;;;;;;;;6151292;23;20021;-63
2023/07/25 07:51:24;;;;;;;5.30;2.90;;;;;;;;;;6151790;23;20021;-64
2023/07/25 07:53:51;;;;;;;4.00;2.10;;;;;;;;;;6152020;23;20021;-57
2023/07/25 07:56:17;;;;;;;4.90;2.45;;;;;;;;;;6152324;23;20024;-56
2023/07/25 07:58:46;;;;;;;7.75;3.05;;;;;;;;;;6152114;23;20096;-54
2023/07/25 08:01:16;;;;;;;5.53;2.60;;;;;;;;;;6152940;23;20357;-59
2023/07/25 08:03:43;;;;;;;;;;;;;;;;;;6152919;23;20344;-57
2023/07/25 08:06:10;;;;;;;5.60;2.95;;;;;;;;;;6152452;23;19921;-57
2023/07/25 08:08:36;;;;;;;5.15;2.95;;;;;;;;;;6152241;23;20056;-58
2023/07/25 08:11:03;;;;;;;5.97;3.10;;;;;;;;;;6152396;23;20460;-56
2023/07/25 08:13:30;;;;;;;5.80;2.90;;;;;;;;;;6152069;23;20055;-54
2023/07/25 08:15:58;;;;;;;5.38;2.53;;;;;;;;;;6152798;23;20040;-57
2023/07/25 08:18:24;;;;;;;4.93;2.38;;;;;;;;;;6152238;23;20105;-58
2023/07/25 08:20:56;;;;;;;5.40;2.88;;;;;;;;;;6151932;23;20484;-58
2023/07/25 08:23:22;;;;;;;3.90;2.25;;;;;;;;;;6151847;23;20076;-57
2023/07/25 08:25:50;;;;;;;5.07;2.10;;;;;;;;;;6152626;23;20068;-59
2023/07/25 08:28:16;;;;;;;4.35;2.28;;;;;;;;;;6152189;23;20029;-57
2023/07/25 08:30:43;;;;;;;4.57;2.42;;;;;;;;;;6151653;23;20022;-52
2023/07/25 08:33:12;;;;;;;4.25;2.33;;;;;;;;;;6151688;23;20025;-56
2023/07/25 08:35:39;;;;;;;4.07;2.30;;;;;;;;;;6152630;23;20025;-53
2023/07/25 08:38:05;;;;;;;4.80;2.30;;;;;;;;;;6152647;23;20392;-59
2023/07/25 08:40:32;;;;;;;4.32;2.08;;;;;;;;;;6152158;23;20028;-58
2023/07/25 08:43:04;;;;;;;4.38;2.30;;;;;;;;;;6151725;23;20345;-59
2023/07/25 08:45:32;;;;;;;3.72;1.92;;;;;;;;;;6151676;23;20021;-59
2023/07/25 08:48:04;;;;;;;5.95;2.50;;;;;;;;;;6152207;23;20026;-56
2023/07/25 08:50:32;;;;;;;4.57;2.47;;;;;;;;;;6152317;23;20289;-59
2023/07/25 08:53:03;;;;;;;6.72;2.40;;;;;;;;;;6151987;23;20133;-59
2023/07/25 08:55:29;;;;;;;;;;;;;;;;;;6152498;23;20429;-58
2023/07/25 08:57:57;;;;;;;5.18;2.33;;;;;;;;;;6151799;23;19917;-59
2023/07/25 09:00:24;;;;;;;4.68;2.33;;;;;;;;;;6152609;23;20021;-62
2023/07/25 09:02:52;;;;;;;5.30;2.33;;;;;;;;;;6151490;23;20020;-59
2023/07/25 09:05:19;;;;;;;4.32;2.20;;;;;;;;;;6151586;23;20021;-60
2023/07/25 09:07:47;;;;;;;6.22;2.30;;;;;;;;;;6151745;23;20097;-59
2023/07/25 09:10:13;;;;;;;5.28;2.40;;;;;;;;;;6151318;23;20021;-57
2023/07/25 09:12:40;;;;;;;4.95;2.75;;;;;;;;;;6151265;23;20028;-58
2023/07/25 09:15:08;;;;;;;6.15;2.72;;;;;;;;;;6151918;23;20060;-60
2023/07/25 09:17:35;;;;;;;4.55;2.55;;;;;;;;;;6151415;23;20064;-57
2023/07/25 09:20:02;;;;;;;5.07;2.90;;;;;;;;;;6151708;23;20026;-58
2023/07/25 09:22:30;;;;;;;3.97;2.30;;;;;;;;;;6152480;23;20515;-58
2023/07/25 09:24:59;;;;;;;5.03;2.55;;;;;;;;;;6151717;23;20059;-59
2023/07/25 09:27:26;;;;;;;5.50;2.63;;;;;;;;;;6151979;23;20373;-60
2023/07/25 09:29:53;;;;;;;5.60;2.20;;;;;;;;;;6151929;23;20350;-61
2023/07/25 09:32:23;;;;;;;5.65;2.42;;;;;;;;;;6151856;23;20026;-58
2023/07/25 09:34:57;;;;;;;4.80;2.28;;;;;;;;;;6152254;23;20021;-58
2023/07/25 09:37:24;;;;;;;3.95;2.00;;;;;;;;;;6151804;23;20025;-61
2023/07/25 09:39:51;;;;;;;4.78;2.55;;;;;;;;;;6151757;23;20083;-56
2023/07/25 09:42:21;;;;;;;5.80;2.78;;;;;;;;;;6151501;23;20045;-59
2023/07/25 09:44:51;;;;;;;4.43;2.13;;;;;;;;;;6151336;23;20026;-59
2023/07/25 09:47:21;;;;;;;4.70;2.30;;;;;;;;;;6152081;23;20434;-60
2023/07/25 09:49:49;;;;;;;4.47;2.25;;;;;;;;;;6150919;23;20096;-59
2023/07/25 09:52:16;;;;;;;4.65;2.30;;;;;;;;;;6151303;23;20044;-60
2023/07/25 09:54:42;;;;;;;5.03;2.28;;;;;;;;;;6151643;23;20096;-60
2023/07/25 09:57:09;;;;;;;4.45;2.05;;;;;;;;;;6151267;23;20017;-59
2023/07/25 09:59:38;;;;;;;3.67;2.00;;;;;;;;;;6151455;23;20396;-59
2023/07/25 10:02:05;;;;;;;3.88;2.25;;;;;;;;;;6151433;23;20018;-57
2023/07/25 10:04:35;;;;;;;3.88;1.67;;;;;;;;;;6151291;23;20025;-60
2023/07/25 10:07:03;;;;;;;3.35;1.63;;;;;;;;;;6151862;23;20061;-59
2023/07/25 10:09:30;;;;;;;4.15;2.33;;;;;;;;;;6151398;23;20017;-60
2023/07/25 10:11:57;;;;;;;4.10;2.00;;;;;;;;;;6151444;23;20448;-58
2023/07/25 10:14:24;;;;;;;4.80;2.30;;;;;;;;;;6151030;23;20053;-57
2023/07/25 10:16:52;;;;;;;4.65;2.00;;;;;;;;;;6151658;23;20150;-59
2023/07/25 10:19:19;;;;;;;4.75;1.65;;;;;;;;;;6151126;23;20025;-59
2023/07/25 10:21:48;;;;;;;3.33;1.70;;;;;;;;;;6150876;23;20028;-57
2023/07/25 10:24:15;;;;;;;3.78;1.70;;;;;;;;;;6151409;23;20029;-57
2023/07/25 10:26:56;;;;;;;4.75;1.80;;;;;;;;;;6150989;23;20128;-58
2023/07/25 10:29:41;;;;;;;3.78;1.88;;;;;;;;;;6151298;23;20019;-58
2023/07/25 10:32:10;;;;;;;4.45;1.80;;;;;;;;;;6151289;23;20022;-57
2023/07/25 10:34:50;;;;;;;4.93;2.13;;;;;;;;;;6151719;23;20092;-59
2023/07/25 10:37:20;;;;;;;;;;;;;;;;;;6151864;23;20080;-55
2023/07/25 10:39:47;;;;;;;3.72;1.60;;;;;;;;;;6151034;23;19940;-56
2023/07/25 10:42:15;;;;;;;3.15;1.50;;;;;;;;;;6151269;23;20413;-57
2023/07/25 10:44:42;;;;;;;3.53;1.63;;;;;;;;;;6150989;23;20024;-59
2023/07/25 10:47:42;;;;;;;2.67;1.50;;;;;;;;;;6151165;23;20025;-58
2023/07/25 10:50:10;;;;;;;4.20;1.67;;;;;;;;;;6151203;23;20026;-56
2023/07/25 10:52:43;;;;;;;3.70;1.50;;;;;;;;;;6151406;23;20089;-57
2023/07/25 10:55:11;;;;;;;2.50;1.30;;;;;;;;;;6151350;23;20373;-57
2023/07/25 10:57:37;;;;;;;3.25;1.63;;;;;;;;;;6151082;23;20484;-55
2023/07/25 11:00:08;;;;;;;2.50;1.27;;;;;;;;;;6151155;23;20037;-58
2023/07/25 11:02:36;;;;;;;3.30;1.70;;;;;;;;;;6151293;23;20368;-57
2023/07/25 11:05:22;;;;;;;3.28;1.52;;;;;;;;;;6151483;23;20053;-58
2023/07/25 11:07:53;;;;;;;2.90;1.42;;;;;;;;;;6151418;23;20041;-59
2023/07/25 11:10:22;;;;;;;2.97;1.55;;;;;;;;;;6151460;23;20025;-59
2023/07/25 11:12:51;;;;;;;3.15;1.63;;;;;;;;;;6151130;23;20334;-59
2023/07/25 11:15:18;;;;;;;4.37;1.57;;;;;;;;;;6150986;23;20017;-58
2023/07/25 11:17:45;;;;;;;3.30;1.63;;;;;;;;;;6151796;23;20025;-58
2023/07/25 11:20:13;;;;;;;3.25;1.65;;;;;;;;;;6151449;23;20495;-59
2023/07/25 11:22:41;;;;;;;2.97;1.48;;;;;;;;;;6151004;23;20033;-58
2023/07/25 11:25:09;;;;;;;4.55;1.80;;;;;;;;;;6151645;23;20052;-59
2023/07/25 11:27:40;;;;;;;3.92;1.52;;;;;;;;;;6151623;23;20105;-58
2023/07/25 11:30:12;;;;;;;2.45;1.15;;;;;;;;;;6151334;23;20053;-58
2023/07/25 11:32:39;;;;;;;2.70;1.38;;;;;;;;;;6153094;23;20025;-59
2023/07/25 11:35:06;;;;;;;3.55;1.40;;;;;;;;;;6153336;23;20018;-59
2023/07/25 11:37:33;;;;;;;3.13;1.40;;;;;;;;;;6153688;23;20113;-60
2023/07/25 11:40:12;;;;;;;3.20;1.70;;;;;;;;;;6153248;23;20021;-58
2023/07/25 11:42:40;;;;;;;5.70;1.67;;;;;;;;;;6153269;23;20025;-59
2023/07/25 11:45:09;;;;;;;3.15;1.45;;;;;;;;;;6153322;23;20024;-59
2023/07/25 11:47:37;;;;;;;3.95;1.40;;;;;;;;;;6153145;23;20025;-59
2023/07/25 11:50:05;;;;;;;2.72;1.50;;;;;;;;;;6153108;23;20052;-60
2023/07/25 11:52:39;;;;;;;5.72;1.50;;;;;;;;;;6153417;23;20021;-58
2023/07/25 11:55:08;;;;;;;4.10;1.38;;;;;;;;;;6152659;23;20052;-59
2023/07/25 11:57:37;;;;;;;3.00;1.30;;;;;;;;;;6153156;23;20096;-59
2023/07/25 12:00:06;;;;;;;3.75;1.77;;;;;;;;;;6152579;23;20104;-59
2023/07/25 12:02:36;;;;;;;5.75;1.55;;;;;;;;;;6153137;23;20025;-59
2023/07/25 12:05:03;;;;;;;5.10;1.33;;;;;;;;;;6153081;23;20022;-59
2023/07/25 12:07:48;;;;;;;4.13;1.75;;;;;;;;;;6152743;23;20452;-57
2023/07/25 12:10:14;;;;;;;3.55;1.40;;;;;;;;;;6152416;23;20070;-60
2023/07/25 12:12:43;;;;;;;7.47;1.75;;;;;;;;;;6153035;23;20021;-57
2023/07/25 12:15:10;;;;;;;3.15;1.40;;;;;;;;;;6152703;23;20318;-57
2023/07/25 12:17:46;;;;;;;3.20;1.30;;;;;;;;;;6152627;23;20068;-59
2023/07/25 12:20:14;;;;;;;4.53;1.50;;;;;;;;;;6152334;23;20097;-59
2023/07/25 12:22:41;;;;;;;4.10;1.50;;;;;;;;;;6152219;23;20076;-58
2023/07/25 12:25:08;;;;;;;3.15;1.30;;;;;;;;;;6152157;23;20101;-58
2023/07/25 12:27:44;;;;;;;3.63;1.40;;;;;;;;;;6152251;23;20082;-56
2023/07/25 12:30:12;;;;;;;3.70;1.30;;;;;;;;;;6151871;23;20022;-58
2023/07/25 12:32:39;;;;;;;3.25;1.58;;;;;;;;;;6152312;23;20036;-58
2023/07/25 12:35:06;;;;;;;3.63;1.60;;;;;;;;;;6152492;23;20023;-58
2023/07/25 12:37:33;;;;;;;3.70;1.58;;;;;;;;;;6152063;23;20037;-56
2023/07/25 12:39:59;;;;;;;3.47;1.50;;;;;;;;;;6152409;23;20100;-59
2023/07/25 12:42:26;;;;;;;3.08;1.50;;;;;;;;;;6151850;23;20068;-56
2023/07/25 12:44:53;;;;;;;3.35;1.40;;;;;;;;;;6152234;23;20045;-58
2023/07/25 12:47:21;;;;;;;5.07;1.45;;;;;;;;;;6151936;23;20026;-58
2023/07/25 12:49:48;;;;;;;4.93;1.67;;;;;;;;;;6151929;23;20021;-58
2023/07/25 12:52:15;;;;;;;3.38;1.40;;;;;;;;;;6152564;23;20045;-59
2023/07/25 12:54:42;;;;;;;4.50;1.65;;;;;;;;;;6152037;23;20025;-59
2023/07/25 12:57:09;;;;;;;4.97;1.80;;;;;;;;;;6152458;23;20284;-56
2023/07/25 12:59:35;;;;;;;3.88;1.83;;;;;;;;;;6152074;23;20101;-60
2023/07/25 13:02:03;;;;;;;4.57;1.77;;;;;;;;;;6152290;23;20436;-59
2023/07/25 13:04:31;;;;;;;3.67;1.67;;;;;;;;;;6151478;23;20056;-60
2023/07/25 13:06:57;;;;;;;3.65;1.52;;;;;;;;;;6152203;23;20384;-59
2023/07/25 13:09:24;;;;;;;3.95;1.55;;;;;;;;;;6152155;23;20398;-60
2023/07/25 13:11:51;;;;;;;3.33;1.67;;;;;;;;;;6152120;23;20021;-58
2023/07/25 13:14:18;;;;;;;3.80;1.60;;;;;;;;;;6152133;23;20017;-59
2023/07/25 13:16:44;;;;;;;3.45;1.85;;;;;;;;;;6152246;23;20037;-56
2023/07/25 13:19:12;;;;;;;3.03;1.50;;;;;;;;;;6151982;23;20330;-59
2023/07/25 13:21:40;;;;;;;3.92;1.65;;;;;;;;;;6151460;23;20026;-57
2023/07/25 13:24:07;;;;;;;3.80;1.63;;;;;;;;;;6151603;23;20032;-59
2023/07/25 13:26:33;;;;;;;3.83;1.77;;;;;;;;;;6151840;23;20096;-60
2023/07/25 13:29:00;;;;;;;3.83;2.00;;;;;;;;;;6151350;23;20025;-60
2023/07/25 13:31:26;;;;;;;4.78;1.60;;;;;;;;;;6151379;23;20024;-58
2023/07/25 13:33:53;;;;;;;3.17;1.35;;;;;;;;;;6151632;23;20052;-60
2023/07/25 13:36:20;;;;;;;4.65;1.60;;;;;;;;;;6151932;23;20025;-57
2023/07/25 13:38:48;;;;;;;3.05;1.40;;;;;;;;;;6151926;23;20021;-59
2023/07/25 13:41:14;;;;;;;3.50;1.40;;;;;;;;;;6152192;23;20445;-60
2023/07/25 13:43:44;;;;;;;3.67;1.40;;;;;;;;;;6151880;23;20022;-59
2023/07/25 13:46:10;;;;;;;3.42;1.67;;;;;;;;;;6151804;23;20037;-59
2023/07/25 13:48:37;;;;;;;2.53;1.33;;;;;;;;;;6151870;23;20021;-59
2023/07/25 13:51:04;;;;;;;2.80;1.33;;;;;;;;;;6151967;23;20466;-58
2023/07/25 13:53:31;;;;;;;3.45;1.50;;;;;;;;;;6152087;23;20471;-59
2023/07/25 13:55:59;;;;;;;2.30;1.35;;;;;;;;;;6151357;23;20300;-59
2023/07/25 13:58:25;;;;;;;2.35;1.27;;;;;;;;;;6151663;23;20018;-60
2023/07/25 14:00:52;;;;;;;3.10;1.52;;;;;;;;;;6151280;23;20026;-60
2023/07/25 14:03:19;;;;;;;3.13;1.50;;;;;;;;;;6151654;23;20079;-59
2023/07/25 14:05:45;;;;;;;3.40;1.35;;;;;;;;;;6151536;23;20453;-59
2023/07/25 14:08:12;;;;;;;3.40;1.50;;;;;;;;;;6151388;23;20021;-59
2023/07/25 14:10:39;;;;;;;3.35;1.52;;;;;;;;;;6150783;23;20028;-59
2023/07/25 14:13:07;;;;;;;3.67;1.38;;;;;;;;;;6151200;23;20028;-58
2023/07/25 14:15:34;;;;;;;4.95;1.95;;;;;;;;;;6151282;23;20017;-59
2023/07/25 14:18:02;;;;;;;3.63;1.83;;;;;;;;;;6151481;23;20049;-58
2023/07/25 14:20:29;;;;;;;4.93;1.80;;;;;;;;;;6151477;23;20026;-58
2023/07/25 14:22:55;;;;;;;4.40;1.58;;;;;;;;;;6151576;23;20054;-59
2023/07/25 14:25:22;;;;;;;3.92;1.60;;;;;;;;;;6151069;23;20104;-59
2023/07/25 14:27:49;;;;;;;6.13;2.00;;;;;;;;;;6150765;23;20108;-60
2023/07/25 14:30:17;;;;;;;4.63;1.77;;;;;;;;;;6151258;23;20022;-58
2023/07/25 14:32:44;;;;;;;5.25;2.42;;;;;;;;;;6151201;23;20022;-59
2023/07/25 14:35:10;;;;;;;5.22;2.05;;;;;;;;;;6150700;23;20060;-57
2023/07/25 14:37:37;;;;;;;7.38;2.30;;;;;;;;;;6151442;23;20017;-57
2023/07/25 14:40:06;;;;;;;7.20;2.50;;;;;;;;;;6151045;23;20024;-55
2023/07/25 14:42:32;;;;;;;3.92;1.83;;;;;;;;;;6150810;23;20029;-59
2023/07/25 14:44:59;;;;;;;6.00;2.63;;;;;;;;;;6150830;23;20085;-56